Time;durP1;ratioP1;P1;durP2;ratioP2;P2;SDS_P1;SDS_P2;PMS_P1;PMS_P2;Temp;Humidity;BMP_temperature;BMP_pressure;BME280_temperature;BME280_humidity;BME280_pressure;Samples;Min_cycle;Max_cycle;Signal;HPM_P1;HPM_P2
2021/08/16 00:02:39;;;;;;;20.47;5.67;;;;;;;24.59;75.23;99655.91;6372195;27;20039;-70
2021/08/16 00:05:39;;;;;;;13.93;6.40;;;;;;;24.58;76.84;99654.25;6353662;28;20134;-70
2021/08/16 00:08:40;;;;;;;13.32;6.15;;;;;;;24.56;76.31;99653.63;6352981;28;20275;-73
2021/08/16 00:11:41;;;;;;;9.77;5.87;;;;;;;24.52;78.92;99655.84;6352575;28;20039;-73
2021/08/16 00:14:42;;;;;;;12.37;6.13;;;;;;;24.48;78.65;99662.56;6310210;28;20071;-74
2021/08/16 00:17:44;;;;;;;12.38;5.53;;;;;;;24.43;77.80;99668.47;6327936;28;20378;-70
2021/08/16 00:20:44;;;;;;;13.27;6.07;;;;;;;24.41;77.12;99669.69;6346416;28;20040;-70
2021/08/16 00:23:45;;;;;;;12.33;6.20;;;;;;;24.40;79.52;99676.88;6328169;28;20501;-70
2021/08/16 00:26:47;;;;;;;9.43;5.97;;;;;;;24.36;78.86;99670.28;6346326;28;20279;-70
2021/08/16 00:29:48;;;;;;;12.27;6.18;;;;;;;24.32;79.31;99671.69;6328095;28;20036;-70
2021/08/16 00:32:51;;;;;;;12.53;6.13;;;;;;;24.28;79.03;99667.75;6327160;28;20114;-73
2021/08/16 00:35:52;;;;;;;15.32;6.07;;;;;;;24.33;76.20;99670.66;6327046;28;20050;-73
2021/08/16 00:38:53;;;;;;;13.95;6.05;;;;;;;24.34;76.99;99669.63;6327087;28;20036;-74
2021/08/16 00:41:54;;;;;;;12.60;6.03;;;;;;;24.42;74.77;99668.66;6327045;28;20074;-74
2021/08/16 00:44:55;;;;;;;14.55;6.15;;;;;;;24.44;74.54;99669.28;6345034;28;20426;-74
2021/08/16 00:47:56;;;;;;;13.57;5.70;;;;;;;24.40;75.73;99665.34;6327063;28;20040;-74
2021/08/16 00:50:56;;;;;;;12.23;5.72;;;;;;;24.32;77.47;99667.16;6327042;28;20358;-71
2021/08/16 00:53:58;;;;;;;11.77;6.00;;;;;;;24.32;78.32;99669.00;6346122;28;20123;-73
2021/08/16 00:56:59;;;;;;;10.15;5.40;;;;;;;24.33;76.13;99675.97;6327195;28;20268;-70
2021/08/16 01:00:03;;;;;;;10.93;5.97;;;;;;;24.29;76.44;99678.19;6328374;28;20035;-71
2021/08/16 01:03:04;;;;;;;9.43;5.85;;;;;;;24.27;78.16;99696.22;6327653;28;20048;-71
2021/08/16 01:06:04;;;;;;;11.47;6.03;;;;;;;24.24;79.19;99712.59;6345626;28;20398;-70
2021/08/16 01:09:05;;;;;;;13.65;6.47;;;;;;;24.16;80.13;99719.91;6327589;28;20043;-70
2021/08/16 01:12:07;;;;;;;14.03;6.73;;;;;;;24.17;80.03;99735.69;6347688;28;20031;-73
2021/08/16 01:15:08;;;;;;;;;;;;;;;24.18;79.99;99749.88;6314993;28;20044;-74
2021/08/16 01:18:09;;;;;;;13.38;6.40;;;;;;;24.24;79.32;99802.44;6349520;28;19926;-71
2021/08/16 01:21:12;;;;;;;11.30;5.90;;;;;;;24.27;79.16;99816.19;6350045;28;20474;-70
2021/08/16 01:24:14;;;;;;;19.13;7.00;;;;;;;24.29;79.30;99790.16;6349847;28;20128;-70
2021/08/16 01:27:15;;;;;;;10.45;6.30;;;;;;;24.35;78.22;99812.56;6331797;28;20047;-71
2021/08/16 01:30:18;;;;;;;9.77;6.25;;;;;;;24.38;78.50;99822.03;6349109;28;20122;-74
2021/08/16 01:33:19;;;;;;;17.15;6.32;;;;;;;24.36;78.09;99819.56;6330910;28;20096;-74
2021/08/16 01:36:20;;;;;;;12.85;6.80;;;;;;;24.39;77.75;99808.53;6331070;28;20036;-71
2021/08/16 01:39:21;;;;;;;11.93;5.80;;;;;;;24.37;78.17;99849.72;6349839;28;20040;-70
2021/08/16 01:42:22;;;;;;;11.50;4.60;;;;;;;24.29;73.58;99840.81;6349413;28;20283;-70
2021/08/16 01:45:23;;;;;;;12.80;3.80;;;;;;;24.19;69.56;99858.13;6348046;28;20043;-70
2021/08/16 01:48:23;;;;;;;9.53;4.33;;;;;;;24.16;69.03;99827.34;6331206;28;20088;-71
2021/08/16 01:51:24;;;;;;;12.90;3.13;;;;;;;24.08;67.83;99796.28;6313946;28;20081;-70
2021/08/16 01:54:25;;;;;;;8.80;3.37;;;;;;;24.01;68.33;99789.22;6348944;28;20503;-75
2021/08/16 01:57:26;;;;;;;9.27;3.23;;;;;;;23.92;69.16;99792.00;6330192;28;20040;-74
2021/08/16 02:00:27;;;;;;;13.47;3.27;;;;;;;23.85;70.03;99820.41;6313289;28;20279;-74
2021/08/16 02:03:27;;;;;;;7.15;2.80;;;;;;;23.70;71.41;99868.34;6296497;28;20789;-75
2021/08/16 02:06:28;;;;;;;5.90;3.07;;;;;;;23.68;72.77;99866.84;6304649;28;20084;-74
2021/08/16 02:09:29;;;;;;;5.57;3.15;;;;;;;23.56;74.74;99876.34;6323808;28;20447;-71
2021/08/16 02:12:30;;;;;;;7.10;3.10;;;;;;;23.40;76.92;99872.81;6322548;28;20040;-71
2021/08/16 02:15:30;;;;;;;7.50;3.60;;;;;;;23.39;77.71;99878.31;6323477;28;20048;-71
2021/08/16 02:18:31;;;;;;;5.07;3.10;;;;;;;23.19;78.94;99870.84;6323255;28;20298;-70
2021/08/16 02:21:32;;;;;;;7.47;3.60;;;;;;;23.11;79.57;99865.59;6305430;28;20397;-70
2021/08/16 02:24:32;;;;;;;7.10;2.90;;;;;;;22.94;80.51;99871.03;6323240;28;20123;-70
2021/08/16 02:27:33;;;;;;;7.67;2.77;;;;;;;22.91;80.53;99867.88;6322083;28;20119;-71
2021/08/16 02:30:34;;;;;;;6.73;2.90;;;;;;;22.93;80.63;99871.19;6322040;28;20064;-71
2021/08/16 02:33:35;;;;;;;6.50;3.20;;;;;;;22.79;81.41;99859.47;6322006;28;20384;-71
2021/08/16 02:36:36;;;;;;;6.70;3.20;;;;;;;22.83;81.44;99862.63;6323146;28;20090;-75
2021/08/16 02:39:36;;;;;;;8.53;3.10;;;;;;;22.79;81.52;99872.78;6322798;28;20040;-71
2021/08/16 02:42:38;;;;;;;5.93;3.03;;;;;;;22.79;81.69;99869.31;6305029;28;20487;-71
2021/08/16 02:45:39;;;;;;;5.72;2.72;;;;;;;22.78;82.07;99846.38;6305194;28;20111;-71
2021/08/16 02:48:40;;;;;;;8.40;3.13;;;;;;;22.73;82.53;99829.13;6321782;28;20040;-70
2021/08/16 02:51:40;;;;;;;7.47;2.97;;;;;;;22.73;82.52;99845.09;6304770;28;20032;-71
2021/08/16 02:54:42;;;;;;;4.70;3.07;;;;;;;22.71;82.15;99848.91;6304821;28;20047;-71
2021/08/16 02:57:42;;;;;;;;;;;;;;;22.72;82.22;99862.03;6322864;28;20081;-70
2021/08/16 03:00:43;;;;;;;6.20;3.10;;;;;;;22.70;82.34;99868.53;6322445;28;20348;-71
2021/08/16 03:03:44;;;;;;;9.10;2.57;;;;;;;22.67;82.30;99877.72;6304375;28;20043;-71
2021/08/16 03:06:45;;;;;;;6.10;2.57;;;;;;;22.68;82.88;99887.31;6321038;28;20061;-71
2021/08/16 03:09:45;;;;;;;8.83;2.83;;;;;;;22.64;83.26;99874.56;6322288;28;20123;-70
2021/08/16 03:12:46;;;;;;;6.17;3.00;;;;;;;22.62;83.40;99860.63;6287605;28;20048;-70
2021/08/16 03:15:47;;;;;;;10.20;2.97;;;;;;;22.60;83.88;99852.00;6322125;28;20089;-70
2021/08/16 03:18:47;;;;;;;8.47;3.37;;;;;;;22.60;83.94;99855.47;6320837;28;20046;-71
2021/08/16 03:21:48;;;;;;;6.60;2.97;;;;;;;22.59;84.89;99863.63;6321952;28;20044;-71
2021/08/16 03:24:49;;;;;;;8.30;2.93;;;;;;;22.53;85.07;99859.84;6320268;28;20036;-71
2021/08/16 03:27:50;;;;;;;6.33;3.27;;;;;;;22.54;85.12;99864.97;6303578;28;20069;-75
2021/08/16 03:30:50;;;;;;;6.13;3.17;;;;;;;22.51;85.60;99873.31;6320055;28;20078;-75
2021/08/16 03:33:51;;;;;;;13.57;3.60;;;;;;;22.47;86.06;99866.69;6320434;28;20094;-75
2021/08/16 03:36:52;;;;;;;4.57;3.33;;;;;;;22.50;85.48;99855.69;6319540;28;20121;-75
2021/08/16 03:39:52;;;;;;;7.77;3.10;;;;;;;22.50;85.17;99861.00;6319577;28;20039;-74
2021/08/16 03:42:53;;;;;;;5.97;3.27;;;;;;;22.49;85.79;99858.53;6320768;28;20040;-74
2021/08/16 03:45:54;;;;;;;5.77;3.10;;;;;;;22.45;85.63;99862.56;6319358;28;20478;-74
2021/08/16 03:48:55;;;;;;;7.33;3.13;;;;;;;22.45;85.09;99852.75;6302738;28;20482;-74
2021/08/16 03:51:56;;;;;;;10.20;3.10;;;;;;;22.39;86.33;99840.16;6320518;28;20043;-75
2021/08/16 03:54:56;;;;;;;8.73;3.67;;;;;;;22.39;86.76;99810.91;6320629;28;20051;-75
2021/08/16 03:57:57;;;;;;;7.73;3.70;;;;;;;22.41;87.30;99821.38;6286006;28;20070;-75
2021/08/16 04:00:58;;;;;;;5.83;3.20;;;;;;;22.37;90.52;99820.06;6302447;28;20071;-75
2021/08/16 04:04:01;;;;;;;7.60;3.63;;;;;;;22.38;90.42;99825.19;6319994;28;20051;-75
2021/08/16 04:07:02;;;;;;;7.00;3.25;;;;;;;22.35;92.43;99816.78;6327415;28;20263;-75
2021/08/16 04:10:03;;;;;;;4.75;3.10;;;;;;;22.33;93.91;99801.00;6327535;28;20043;-75
2021/08/16 04:13:04;;;;;;;6.13;3.10;;;;;;;22.31;93.97;99757.81;6345709;28;20046;-71
2021/08/16 04:16:05;;;;;;;9.32;3.38;;;;;;;22.25;91.93;99754.03;6345612;28;20048;-70
2021/08/16 04:19:06;;;;;;;7.63;3.33;;;;;;;22.16;93.97;99748.94;6345603;28;20047;-70
2021/08/16 04:22:07;;;;;;;10.03;3.60;;;;;;;22.11;92.94;99726.38;6310491;28;20108;-70
2021/08/16 04:25:09;;;;;;;5.97;3.50;;;;;;;22.08;93.99;99724.06;6327261;28;20624;-70
2021/08/16 04:28:10;;;;;;;5.97;3.70;;;;;;;21.98;97.04;99717.31;6345601;28;20402;-70
2021/08/16 04:31:11;;;;;;;7.00;3.60;;;;;;;21.97;95.24;99721.81;6327517;28;20067;-70
2021/08/16 04:34:12;;;;;;;6.97;3.97;;;;;;;21.95;96.65;99737.09;6345363;28;20123;-71
2021/08/16 04:37:12;;;;;;;8.67;3.60;;;;;;;21.94;97.19;99733.59;6345797;28;20044;-70
2021/08/16 04:40:14;;;;;;;6.30;3.83;;;;;;;21.95;96.10;99729.13;6327238;28;20035;-70
2021/08/16 04:43:15;;;;;;;7.50;3.78;;;;;;;21.92;96.11;99754.19;6327284;28;20043;-70
2021/08/16 04:46:16;;;;;;;7.45;3.60;;;;;;;21.90;95.86;99763.34;6311308;28;20038;-71
2021/08/16 04:49:17;;;;;;;6.07;3.47;;;;;;;22.02;94.19;99767.25;6332025;28;20039;-70
2021/08/16 04:52:17;;;;;;;6.17;3.60;;;;;;;22.02;93.27;99763.78;6350064;28;20054;-70
2021/08/16 04:55:18;;;;;;;7.37;4.10;;;;;;;21.91;97.48;99741.94;6331900;28;20084;-70
2021/08/16 04:58:19;;;;;;;7.03;3.63;;;;;;;21.87;97.88;99740.63;6368868;27;20035;-70
2021/08/16 05:01:20;;;;;;;8.37;3.90;;;;;;;21.85;97.78;99734.66;6357231;27;20039;-70
2021/08/16 05:04:21;;;;;;;8.27;3.77;;;;;;;21.87;95.93;99722.03;6339983;27;20521;-71
2021/08/16 05:07:22;;;;;;;10.10;3.90;;;;;;;21.93;94.60;99701.94;6331563;28;20035;-71
2021/08/16 05:10:24;;;;;;;12.02;3.75;;;;;;;21.86;94.98;99695.66;6349661;28;20068;-75
2021/08/16 05:13:25;;;;;;;5.60;3.67;;;;;;;21.83;95.11;99688.88;6349389;28;20447;-76
2021/08/16 05:16:27;;;;;;;12.13;3.80;;;;;;;21.86;95.79;99707.09;6349695;28;20136;-75
2021/08/16 05:19:28;;;;;;;8.50;4.22;;;;;;;21.85;98.61;99724.03;6331054;28;20405;-75
2021/08/16 05:22:29;;;;;;;5.97;4.23;;;;;;;21.89;98.73;99722.69;6331444;28;20039;-75
2021/08/16 05:25:30;;;;;;;7.40;4.00;;;;;;;22.03;94.40;99728.25;6330957;28;20039;-75
2021/08/16 05:28:31;;;;;;;7.22;3.70;;;;;;;22.09;94.17;99709.78;6331044;28;20032;-75
2021/08/16 05:31:31;;;;;;;7.27;4.03;;;;;;;22.00;94.16;99702.03;6331012;28;20051;-75
2021/08/16 05:34:32;;;;;;;7.90;4.20;;;;;;;21.96;94.84;99714.03;6367339;27;20050;-70
2021/08/16 05:37:33;;;;;;;8.23;4.50;;;;;;;21.90;96.00;99728.81;6374523;27;20525;-70
2021/08/16 05:40:34;;;;;;;8.23;4.00;;;;;;;21.96;95.13;99727.31;6353766;27;20092;-70
2021/08/16 05:43:35;;;;;;;5.43;4.03;;;;;;;21.90;96.47;99732.28;6328194;27;20039;-71
2021/08/16 05:46:35;;;;;;;7.40;4.30;;;;;;;21.88;95.74;99723.69;6340080;27;20054;-71
2021/08/16 05:49:36;;;;;;;8.70;3.57;;;;;;;21.77;95.82;99720.59;6364834;27;20038;-71
2021/08/16 05:52:38;;;;;;;10.13;4.57;;;;;;;21.78;97.02;99720.41;6339685;27;20635;-71
2021/08/16 05:55:39;;;;;;;7.20;4.18;;;;;;;21.75;96.52;99717.31;6356335;27;20481;-72
2021/08/16 05:58:40;;;;;;;7.47;4.33;;;;;;;21.80;96.21;99713.09;6340413;28;20079;-72
2021/08/16 06:01:40;;;;;;;7.43;4.20;;;;;;;21.93;95.40;99724.00;6325284;27;20054;-75
2021/08/16 06:04:41;;;;;;;6.47;4.47;;;;;;;21.91;96.15;99715.38;6364720;27;20051;-75
2021/08/16 06:07:42;;;;;;;5.80;3.73;;;;;;;21.93;95.46;99718.69;6359050;27;20363;-74
2021/08/16 06:10:43;;;;;;;7.27;4.30;;;;;;;21.94;96.60;99716.84;6353597;27;20401;-76
2021/08/16 06:13:43;;;;;;;7.83;4.63;;;;;;;21.95;95.95;99715.84;6313241;28;20040;-75
2021/08/16 06:16:44;;;;;;;7.20;4.00;;;;;;;22.00;95.97;99734.72;6348041;28;20058;-75
2021/08/16 06:19:45;;;;;;;7.70;4.93;;;;;;;22.08;96.72;99734.69;6347908;28;20046;-71
2021/08/16 06:22:46;;;;;;;9.93;4.53;;;;;;;22.06;96.23;99727.91;6347563;28;20103;-70
2021/08/16 06:25:47;;;;;;;6.03;4.17;;;;;;;22.06;95.60;99728.72;6329600;28;20040;-70
2021/08/16 06:28:47;;;;;;;10.67;4.63;;;;;;;22.11;95.48;99726.38;6352658;27;20039;-71
2021/08/16 06:31:48;;;;;;;9.03;4.60;;;;;;;22.15;95.68;99729.47;6364516;27;20043;-73
2021/08/16 06:34:50;;;;;;;7.40;4.70;;;;;;;22.18;95.55;99717.69;6331399;28;20122;-74
2021/08/16 06:37:51;;;;;;;6.60;4.90;;;;;;;22.18;97.35;99723.00;6330505;28;20474;-71
2021/08/16 06:40:54;;;;;;;8.35;4.47;;;;;;;22.32;94.81;99723.09;6314702;28;20043;-71
2021/08/16 06:43:55;;;;;;;14.30;5.25;;;;;;;22.39;96.26;99719.72;6349837;28;20043;-71
2021/08/16 06:46:56;;;;;;;9.60;4.83;;;;;;;22.51;94.29;99726.28;6330868;28;20135;-74
2021/08/16 06:49:56;;;;;;;10.80;4.93;;;;;;;22.69;93.18;99726.78;6297342;28;20047;-72
2021/08/16 06:52:57;;;;;;;6.87;4.90;;;;;;;22.74;94.53;99726.22;6348260;28;20047;-67
2021/08/16 06:55:58;;;;;;;7.67;4.63;;;;;;;22.84;91.75;99713.50;6357763;27;20051;-72
2021/08/16 06:58:59;;;;;;;7.07;4.33;;;;;;;22.87;91.42;99718.44;6321690;27;20464;-73
2021/08/16 07:02:00;;;;;;;9.03;4.57;;;;;;;23.02;91.56;99718.50;6371868;27;20043;-71
2021/08/16 07:05:01;;;;;;;8.23;4.55;;;;;;;23.09;90.82;99716.75;6338810;28;20059;-72
2021/08/16 07:08:01;;;;;;;9.07;4.37;;;;;;;23.19;90.71;99721.00;6337148;27;20046;-73
2021/08/16 07:11:02;;;;;;;5.97;4.17;;;;;;;23.32;88.37;99714.00;6355310;27;20592;-74
2021/08/16 07:14:03;;;;;;;11.67;4.43;;;;;;;23.38;90.26;99719.59;6374807;27;20047;-72
2021/08/16 07:17:04;;;;;;;8.38;4.40;;;;;;;23.47;87.40;99714.00;6374161;27;20042;-73
2021/08/16 07:20:06;;;;;;;8.27;4.23;;;;;;;23.52;88.27;99714.25;6374614;27;20088;-72
2021/08/16 07:23:08;;;;;;;6.07;4.03;;;;;;;23.58;87.75;99717.22;6373954;27;20066;-71
2021/08/16 07:26:08;;;;;;;6.88;4.32;;;;;;;23.70;84.20;99715.69;6354525;27;20053;-67
2021/08/16 07:29:09;;;;;;;10.33;3.73;;;;;;;23.82;85.25;99710.72;6359097;27;20058;-68
2021/08/16 07:32:10;;;;;;;9.57;3.95;;;;;;;23.96;82.74;99714.38;6312147;28;20031;-74
2021/08/16 07:35:11;;;;;;;6.37;3.73;;;;;;;24.03;83.78;99713.44;6318083;27;20042;-75
2021/08/16 07:38:12;;;;;;;8.02;3.75;;;;;;;24.15;79.95;99695.09;6357367;27;20042;-73
2021/08/16 07:41:13;;;;;;;6.70;3.87;;;;;;;24.27;79.66;99700.72;6347200;28;20501;-72
2021/08/16 07:44:15;;;;;;;7.70;4.00;;;;;;;24.36;77.83;99709.41;6322982;27;20047;-70
2021/08/16 07:47:16;;;;;;;8.30;3.63;;;;;;;24.38;78.62;99704.72;6324647;27;20051;-77
2021/08/16 07:50:16;;;;;;;9.77;4.00;;;;;;;24.56;79.04;99705.09;6369424;27;20047;-74
2021/08/16 07:53:17;;;;;;;6.83;4.10;;;;;;;24.61;81.18;99708.03;6325224;27;20074;-74
2021/08/16 07:56:18;;;;;;;6.50;4.03;;;;;;;24.73;77.12;99711.00;6345728;27;20099;-74
2021/08/16 07:59:19;;;;;;;6.17;3.50;;;;;;;24.76;79.86;99704.44;6365022;27;20432;-75
2021/08/16 08:02:20;;;;;;;;;;;;;;;24.84;76.96;99710.47;6357354;28;20052;-73
2021/08/16 08:05:23;;;;;;;4.20;3.63;;;;;;;24.99;76.59;99707.66;6358501;27;19920;-74
2021/08/16 08:08:24;;;;;;;7.70;4.07;;;;;;;25.01;78.07;99705.63;6355538;27;20036;-73
2021/08/16 08:11:25;;;;;;;8.27;4.17;;;;;;;25.06;76.43;99707.69;6340840;28;20058;-73
2021/08/16 08:14:26;;;;;;;8.87;3.63;;;;;;;25.24;75.55;99705.38;6359462;28;20268;-73
2021/08/16 08:17:27;;;;;;;6.07;4.07;;;;;;;25.42;73.14;99710.19;6366498;28;20279;-77
2021/08/16 08:20:28;;;;;;;4.90;3.67;;;;;;;25.51;72.15;99701.00;6355736;27;20066;-74
2021/08/16 08:23:29;;;;;;;7.20;3.83;;;;;;;25.62;71.55;99707.59;6358598;27;20067;-72
2021/08/16 08:26:30;;;;;;;7.40;4.07;;;;;;;25.64;71.57;99704.75;6358808;27;20334;-71
2021/08/16 08:29:30;;;;;;;5.67;3.67;;;;;;;25.69;70.69;99700.44;6356630;27;20111;-71
2021/08/16 08:32:31;;;;;;;6.70;3.80;;;;;;;25.88;69.13;99706.88;6327547;28;20362;-71
2021/08/16 08:35:32;;;;;;;4.93;3.42;;;;;;;25.89;69.14;99700.53;6316006;28;20074;-68
2021/08/16 08:38:33;;;;;;;6.73;4.13;;;;;;;25.95;69.50;99698.09;6335436;27;20130;-74
2021/08/16 08:41:34;;;;;;;7.13;3.80;;;;;;;26.02;69.54;99696.22;6356024;27;20779;-72
2021/08/16 08:44:34;;;;;;;7.43;4.00;;;;;;;26.15;66.49;99698.94;6376117;27;20306;-73
2021/08/16 08:47:35;;;;;;;11.20;4.03;;;;;;;26.24;65.47;99692.34;6375974;27;20087;-74
2021/08/16 08:50:40;;;;;;;9.57;4.15;;;;;;;26.27;67.97;99693.78;6357553;27;20067;-74
2021/08/16 08:53:41;;;;;;;10.35;4.35;;;;;;;26.32;67.77;99692.16;6375999;27;20047;-74
2021/08/16 08:56:42;;;;;;;8.70;4.25;;;;;;;26.38;67.51;99690.50;6356820;27;20609;-75
2021/08/16 08:59:43;;;;;;;6.72;4.03;;;;;;;26.66;63.75;99689.50;6363970;27;20070;-76
2021/08/16 09:03:02;;;;;;;7.25;4.10;;;;;;;26.70;64.28;99685.38;6349857;28;20071;-74
2021/08/16 09:06:03;;;;;;;7.57;4.15;;;;;;;26.77;63.20;99686.19;6349474;28;20044;-78
2021/08/16 09:09:04;;;;;;;9.60;4.07;;;;;;;26.87;60.14;99683.06;6363291;27;20536;-74
2021/08/16 09:12:05;;;;;;;8.90;3.95;;;;;;;26.94;60.16;99676.69;6313823;28;20047;-74
2021/08/16 09:15:20;;;;;;;6.78;3.95;;;;;;;26.96;60.83;99676.47;6349552;28;20061;-71
2021/08/16 09:18:31;;;;;;;8.68;4.18;;;;;;;27.12;58.46;99680.56;6330500;28;20501;-75
2021/08/16 09:21:40;;;;;;;11.32;4.20;;;;;;;27.25;57.64;99687.75;6344629;27;20482;-76
2021/08/16 09:24:41;;;;;;;9.32;4.32;;;;;;;27.31;57.95;99676.19;6360631;27;20381;-78
2021/08/16 09:27:46;;;;;;;8.57;4.80;;;;;;;27.39;59.85;99672.47;6375157;27;20039;-77
2021/08/16 09:30:47;;;;;;;11.18;4.20;;;;;;;27.41;57.17;99681.91;6357437;27;20043;-78
2021/08/16 09:34:06;;;;;;;6.95;4.30;;;;;;;27.48;57.21;99679.22;6356220;27;20039;-78
2021/08/16 09:37:35;;;;;;;9.77;4.40;;;;;;;27.59;55.16;99667.81;6375269;27;20035;-77
2021/08/16 09:40:37;;;;;;;9.27;4.60;;;;;;;27.67;54.42;99672.09;6352970;27;20085;-76
2021/08/16 09:43:38;;;;;;;8.48;4.40;;;;;;;27.66;55.89;99668.59;6375838;27;20405;-75
2021/08/16 09:46:40;;;;;;;11.63;4.60;;;;;;;27.77;55.03;99666.28;6356763;27;20096;-77
2021/08/16 09:49:40;;;;;;;9.05;4.53;;;;;;;27.83;54.11;99662.72;6356353;27;20062;-75
2021/08/16 09:52:42;;;;;;;8.60;4.43;;;;;;;27.82;55.35;99656.56;6356303;27;20035;-66
2021/08/16 09:55:45;;;;;;;12.10;4.78;;;;;;;27.88;53.58;99646.84;6374165;27;20150;-66
2021/08/16 09:58:47;;;;;;;9.02;4.38;;;;;;;27.90;56.77;99645.59;6350949;27;20043;-75
2021/08/16 10:01:48;;;;;;;;;;;;;;;27.98;53.65;99636.47;6374798;27;20039;-75
2021/08/16 10:04:49;;;;;;;12.95;5.10;;;;;;;28.12;53.61;99634.50;6374285;27;19954;-73
2021/08/16 10:07:50;;;;;;;14.32;4.90;;;;;;;28.20;51.62;99633.41;6373296;27;20489;-77
2021/08/16 10:10:55;;;;;;;19.08;5.32;;;;;;;28.34;51.95;99632.25;6338768;27;20042;-77
2021/08/16 10:13:56;;;;;;;6.57;5.32;;;;;;;28.45;48.39;99626.16;6355634;27;20533;-74
2021/08/16 10:16:59;;;;;;;8.48;5.03;;;;;;;28.51;48.86;99627.19;6332353;27;20055;-74
2021/08/16 10:20:06;;;;;;;8.02;4.97;;;;;;;28.63;47.55;99616.53;6348428;28;20498;-74
2021/08/16 10:23:23;;;;;;;9.23;4.90;;;;;;;28.76;48.55;99626.31;6340562;27;20039;-76
2021/08/16 10:26:25;;;;;;;15.70;5.28;;;;;;;28.84;46.66;99618.78;6373505;27;20078;-76
2021/08/16 10:29:28;;;;;;;12.55;5.10;;;;;;;28.97;46.14;99608.94;6356210;27;20127;-77
2021/08/16 10:32:30;;;;;;;12.18;4.90;;;;;;;29.05;46.56;99608.63;6348108;28;20044;-77
2021/08/16 10:35:39;;;;;;;9.65;5.18;;;;;;;29.04;47.25;99601.63;6333218;27;20047;-75
2021/08/16 10:39:06;;;;;;;9.30;5.07;;;;;;;29.10;48.52;99593.50;6354821;27;20100;-75
2021/08/16 10:42:11;;;;;;;10.27;4.97;;;;;;;29.17;45.74;99593.41;6350191;27;20648;-75
2021/08/16 10:45:33;;;;;;;9.15;5.07;;;;;;;29.28;49.60;99599.88;6342608;27;20175;-75
2021/08/16 10:48:34;;;;;;;9.93;5.00;;;;;;;29.31;46.65;99597.56;6362576;27;20122;-75
2021/08/16 10:51:46;;;;;;;14.15;5.05;;;;;;;29.42;46.90;99587.09;6346298;28;20053;-75
2021/08/16 10:54:48;;;;;;;8.18;4.80;;;;;;;29.41;47.70;99590.84;6328102;28;20044;-76
2021/08/16 10:57:48;;;;;;;;;;;;;;;29.49;47.28;99582.47;6349524;27;20043;-77
2021/08/16 11:00:49;;;;;;;9.33;5.10;;;;;;;29.60;46.09;99580.84;6353729;27;19931;-75
2021/08/16 11:03:56;;;;;;;;;;;;;;;29.67;46.82;99573.47;6353891;27;20043;-77
2021/08/16 11:07:02;;;;;;;7.15;4.90;;;;;;;29.88;44.22;99570.31;6355346;27;19920;-79
2021/08/16 11:10:06;;;;;;;12.95;5.43;;;;;;;30.00;46.68;99564.09;6336103;27;20047;-76
2021/08/16 11:13:19;;;;;;;8.27;5.05;;;;;;;30.04;44.88;99562.56;6350682;27;20121;-75
2021/08/16 11:16:20;;;;;;;13.07;5.35;;;;;;;30.05;44.81;99558.84;6353081;27;20096;-74
2021/08/16 11:19:22;;;;;;;8.32;4.97;;;;;;;30.16;45.07;99557.22;6370196;27;20039;-77
2021/08/16 11:22:23;;;;;;;11.02;5.20;;;;;;;30.26;44.68;99563.63;6353480;27;20084;-74
2021/08/16 11:25:24;;;;;;;11.90;5.15;;;;;;;30.29;44.66;99563.22;6353811;27;20438;-74
2021/08/16 11:28:27;;;;;;;11.43;5.18;;;;;;;30.38;44.83;99554.78;6371182;27;20039;-74
2021/08/16 11:31:28;;;;;;;9.25;5.13;;;;;;;30.43;43.21;99546.81;6354318;27;20043;-70
2021/08/16 11:34:31;;;;;;;11.57;5.53;;;;;;;30.68;43.66;99554.59;6370151;27;20097;-75
2021/08/16 11:37:34;;;;;;;12.90;5.75;;;;;;;31.50;40.82;99562.44;6369208;27;20063;-74
2021/08/16 11:40:35;;;;;;;9.57;5.25;;;;;;;33.25;37.25;99546.78;6371532;27;20050;-72
2021/08/16 11:43:35;;;;;;;;;;;;;;;35.56;32.36;99555.38;6354359;27;20035;-75
2021/08/16 11:46:37;;;;;;;12.13;5.30;;;;;;;37.69;28.09;99552.19;6371593;27;19919;-75
2021/08/16 11:49:39;;;;;;;10.70;5.13;;;;;;;39.35;25.50;99551.88;6353824;27;20442;-76
2021/08/16 11:52:40;;;;;;;9.60;5.20;;;;;;;40.37;23.92;99552.06;6354227;27;20428;-73
2021/08/16 11:55:41;;;;;;;15.82;4.90;;;;;;;41.46;22.28;99543.94;6353751;27;20043;-75
2021/08/16 11:58:44;;;;;;;10.88;4.68;;;;;;;42.73;20.99;99538.88;6337645;27;20522;-77
2021/08/16 12:01:45;;;;;;;9.68;4.40;;;;;;;43.24;20.92;99547.44;6372215;27;20051;-77
2021/08/16 12:04:49;;;;;;;8.52;3.95;;;;;;;44.00;18.99;99537.78;6353807;28;20199;-79
2021/08/16 12:07:51;;;;;;;9.55;4.43;;;;;;;44.67;19.20;99538.91;6326497;27;20048;-74
2021/08/16 12:10:52;;;;;;;11.35;4.35;;;;;;;44.28;18.38;99538.16;6372605;28;20082;-78
2021/08/16 12:13:57;;;;;;;9.85;3.90;;;;;;;45.00;18.18;99521.69;6354281;28;20496;-79
2021/08/16 12:16:58;;;;;;;6.22;4.00;;;;;;;43.65;18.67;99518.66;6372419;28;20097;-78
2021/08/16 12:20:07;;;;;;;8.73;4.40;;;;;;;45.37;18.69;99516.34;6372272;28;20043;-75
2021/08/16 12:23:08;;;;;;;8.15;4.13;;;;;;;46.06;17.16;99520.28;6331044;28;20413;-76
2021/08/16 12:26:09;;;;;;;7.88;3.85;;;;;;;46.34;16.03;99519.56;6311688;28;20055;-78
2021/08/16 12:29:18;;;;;;;9.75;4.32;;;;;;;46.53;15.77;99517.03;6311766;28;20039;-77
2021/08/16 12:32:21;;;;;;;10.00;4.05;;;;;;;46.68;15.28;99514.69;6346796;28;20076;-77
2021/08/16 12:35:22;;;;;;;11.73;4.05;;;;;;;46.76;15.38;99506.28;6346614;28;20130;-75
2021/08/16 12:38:28;;;;;;;9.13;3.85;;;;;;;46.12;15.98;99501.56;6328409;28;20042;-77
2021/08/16 12:41:32;;;;;;;8.02;4.10;;;;;;;44.47;17.63;99492.97;6332432;28;20038;-73
2021/08/16 12:44:35;;;;;;;9.02;3.90;;;;;;;41.84;20.52;99492.31;6328676;28;20074;-77
2021/08/16 12:47:36;;;;;;;10.50;4.00;;;;;;;40.10;23.22;99488.09;6346625;28;20048;-79
2021/08/16 12:50:36;;;;;;;13.23;4.18;;;;;;;39.24;28.60;99478.38;6328242;28;20078;-78
2021/08/16 12:53:39;;;;;;;9.60;4.60;;;;;;;38.29;27.49;99470.16;6294762;28;20114;-79
2021/08/16 12:56:39;;;;;;;9.38;4.50;;;;;;;37.68;29.64;99463.50;6328222;28;20056;-81
2021/08/16 12:59:40;;;;;;;6.45;4.20;;;;;;;36.99;29.94;99459.94;6311413;28;20042;-79
2021/08/16 13:02:43;;;;;;;9.77;4.50;;;;;;;36.34;28.98;99453.75;6328026;28;20126;-68
2021/08/16 13:05:43;;;;;;;12.35;4.20;;;;;;;36.15;28.99;99443.53;6346204;28;20047;-73
2021/08/16 13:08:45;;;;;;;19.23;4.85;;;;;;;35.92;30.33;99439.50;6330828;27;20047;-76
2021/08/16 13:11:46;;;;;;;11.00;4.75;;;;;;;35.64;29.75;99430.84;6357354;27;20073;-74
2021/08/16 13:14:46;;;;;;;13.98;4.97;;;;;;;35.53;33.14;99431.97;6332521;28;20051;-78
2021/08/16 13:17:47;;;;;;;10.70;4.90;;;;;;;35.19;32.41;99427.13;6332369;28;20453;-75
2021/08/16 13:20:49;;;;;;;8.65;4.97;;;;;;;34.92;34.96;99420.03;6332575;28;20495;-73
2021/08/16 13:23:49;;;;;;;11.73;4.90;;;;;;;34.46;31.61;99419.09;6314586;28;20054;-72
2021/08/16 13:26:50;;;;;;;7.63;4.80;;;;;;;34.24;33.17;99419.28;6331869;28;20048;-74
2021/08/16 13:29:51;;;;;;;10.57;4.63;;;;;;;34.20;36.80;99410.88;6333785;27;20666;-78
2021/08/16 13:32:52;;;;;;;7.20;4.50;;;;;;;34.07;38.50;99403.22;6355420;27;20389;-78
2021/08/16 13:35:52;;;;;;;12.00;4.93;;;;;;;34.00;35.53;99394.56;6373692;27;20515;-77
2021/08/16 13:38:53;;;;;;;15.90;4.80;;;;;;;33.91;36.47;99391.50;6355886;27;20050;-80
2021/08/16 13:41:55;;;;;;;13.43;4.68;;;;;;;33.86;37.41;99391.50;6356274;27;20047;-80
2021/08/16 13:44:55;;;;;;;14.00;5.20;;;;;;;33.75;38.42;99387.09;6353202;27;20872;-78
2021/08/16 13:47:56;;;;;;;8.00;5.00;;;;;;;33.75;40.19;99387.09;6339150;27;20040;-77
2021/08/16 13:50:57;;;;;;;13.30;5.35;;;;;;;33.70;41.23;99390.59;6350526;27;20042;-78
2021/08/16 13:53:58;;;;;;;11.05;5.10;;;;;;;33.55;42.23;99374.28;6339583;27;20039;-76
2021/08/16 13:56:59;;;;;;;11.90;4.90;;;;;;;33.50;39.08;99377.72;6334744;27;20071;-76
2021/08/16 13:59:59;;;;;;;8.32;5.03;;;;;;;33.40;41.62;99378.50;6355111;27;20126;-76
2021/08/16 14:03:01;;;;;;;8.75;4.97;;;;;;;33.27;41.20;99371.63;6368013;27;20039;-75
2021/08/16 14:06:02;;;;;;;11.43;5.15;;;;;;;33.09;41.66;99378.28;6362098;27;20198;-77
2021/08/16 14:09:04;;;;;;;10.05;5.47;;;;;;;32.85;44.14;99366.97;6323168;27;20043;-76
2021/08/16 14:12:05;;;;;;;9.38;4.88;;;;;;;32.63;44.60;99371.63;6374879;27;20043;-80
2021/08/16 14:15:06;;;;;;;9.93;5.38;;;;;;;32.43;47.14;99370.34;6338578;27;20055;-78